Time;durP1;ratioP1;P1;durP2;ratioP2;P2;SDS_P1;SDS_P2;PMS_P1;PMS_P2;Temp;Humidity;BMP_temperature;BMP_pressure;BME280_temperature;BME280_humidity;BME280_pressure;Samples;Min_cycle;Max_cycle;Signal;HPM_P1;HPM_P2
2021/09/28 00:03:57;;;;;;;13.50;12.57;;;;;;;16.42;91.90;100363.91;10374725;28;20042;-68
2021/09/28 00:08:59;;;;;;;13.45;12.65;;;;;;;16.36;92.03;100371.25;10381747;28;20514;-68
2021/09/28 00:14:01;;;;;;;13.57;12.57;;;;;;;16.30;92.17;100373.38;10381849;28;20447;-68
2021/09/28 00:19:02;;;;;;;13.18;12.35;;;;;;;16.32;92.30;100374.13;10380331;28;20042;-68
2021/09/28 00:24:04;;;;;;;12.55;11.80;;;;;;;16.40;92.14;100380.78;10381137;28;20465;-68
2021/09/28 00:29:06;;;;;;;12.57;11.77;;;;;;;16.19;92.75;100378.31;10380267;28;20046;-68
2021/09/28 00:34:07;;;;;;;13.43;12.52;;;;;;;16.36;92.69;100386.31;10380404;28;20045;-68
2021/09/28 00:39:10;;;;;;;13.60;12.70;;;;;;;16.24;93.03;100384.25;10380515;28;20121;-68
2021/09/28 00:44:11;;;;;;;13.95;13.02;;;;;;;16.38;92.66;100390.63;10379989;28;20452;-68
2021/09/28 00:49:13;;;;;;;12.70;11.88;;;;;;;16.33;91.72;100394.41;10379506;28;20120;-68
2021/09/28 00:54:15;;;;;;;13.70;12.70;;;;;;;16.26;92.14;100395.66;10379500;28;20097;-68
2021/09/28 00:59:17;;;;;;;13.63;12.73;;;;;;;16.18;92.26;100392.53;10380722;28;20045;-68
2021/09/28 01:04:19;;;;;;;11.73;10.90;;;;;;;16.13;92.84;100401.56;10379154;28;20414;-68
2021/09/28 01:09:21;;;;;;;12.65;11.82;;;;;;;16.06;93.61;100397.47;10379780;28;20046;-68
2021/09/28 01:14:22;;;;;;;13.52;12.65;;;;;;;15.96;94.19;100390.06;10377964;28;20045;-68
2021/09/28 01:19:24;;;;;;;13.52;12.73;;;;;;;15.93;94.99;100382.25;10378385;28;20495;-68
2021/09/28 01:24:26;;;;;;;13.50;12.60;;;;;;;16.14;94.19;100392.66;10379246;28;20052;-68
2021/09/28 01:29:29;;;;;;;13.32;12.43;;;;;;;16.37;92.29;100398.63;10393100;23;20041;-73
2021/09/28 01:34:31;;;;;;;14.85;13.75;;;;;;;16.46;91.15;100405.28;10413362;28;20045;-74
2021/09/28 01:39:33;;;;;;;13.73;12.65;;;;;;;16.38;91.50;100411.84;10418450;28;20056;-74
2021/09/28 01:44:34;;;;;;;13.80;13.00;;;;;;;16.23;92.34;100422.34;10418179;28;20037;-74
2021/09/28 01:49:36;;;;;;;13.52;12.52;;;;;;;16.18;93.17;100416.41;10400562;28;20068;-73
2021/09/28 01:54:38;;;;;;;13.55;12.60;;;;;;;16.04;93.94;100420.59;10417793;28;20041;-73
2021/09/28 01:59:39;;;;;;;12.73;11.88;;;;;;;15.99;94.36;100416.44;10417346;28;20049;-74
2021/09/28 02:04:41;;;;;;;14.68;13.70;;;;;;;16.04;94.15;100425.03;10417286;28;20085;-73
2021/09/28 02:09:42;;;;;;;13.32;12.32;;;;;;;16.12;94.03;100426.38;10416514;28;20045;-73
2021/09/28 02:14:44;;;;;;;13.48;12.57;;;;;;;16.21;93.46;100418.91;10416886;28;20406;-73
2021/09/28 02:19:46;;;;;;;13.18;12.18;;;;;;;15.98;94.84;100417.34;10417505;28;20041;-73
2021/09/28 02:24:48;;;;;;;12.77;11.88;;;;;;;15.98;95.11;100417.34;10416758;28;20100;-73
2021/09/28 02:29:49;;;;;;;12.75;11.93;;;;;;;15.92;95.48;100415.00;10415824;28;20103;-73
2021/09/28 02:34:51;;;;;;;13.13;12.32;;;;;;;15.92;95.68;100415.00;10398498;28;20049;-73
2021/09/28 02:39:53;;;;;;;13.02;12.15;;;;;;;16.04;94.73;100411.78;10398143;28;20052;-74
2021/09/28 02:44:55;;;;;;;13.90;12.73;;;;;;;16.38;92.39;100411.84;10398300;28;20045;-73
2021/09/28 02:49:57;;;;;;;13.95;12.98;;;;;;;16.22;92.70;100408.22;10415629;28;20041;-73
2021/09/28 02:54:59;;;;;;;13.30;12.13;;;;;;;16.14;93.73;100415.69;10415443;28;20041;-74
2021/09/28 03:00:00;;;;;;;14.65;13.70;;;;;;;16.15;93.42;100415.59;10415759;28;20041;-74
2021/09/28 03:05:02;;;;;;;14.68;13.57;;;;;;;15.97;94.29;100413.84;10415043;28;20051;-73
2021/09/28 03:10:04;;;;;;;14.48;13.60;;;;;;;15.66;95.45;100416.22;10414835;28;20490;-73
2021/09/28 03:15:06;;;;;;;16.33;15.02;;;;;;;15.44;96.72;100411.03;10414935;28;20049;-74
2021/09/28 03:20:08;;;;;;;15.50;14.52;;;;;;;15.30;97.73;100411.66;10397199;28;20044;-72
2021/09/28 03:25:10;;;;;;;14.93;13.93;;;;;;;15.38;97.80;100428.06;10414678;28;20048;-73
2021/09/28 03:30:12;;;;;;;15.60;14.30;;;;;;;15.75;94.91;100426.41;10414189;28;20037;-72
2021/09/28 03:35:14;;;;;;;14.73;13.52;;;;;;;15.36;95.60;100427.25;10414647;28;20041;-74
2021/09/28 03:40:15;;;;;;;14.43;13.43;;;;;;;15.14;97.58;100428.25;10416899;28;20041;-73
2021/09/28 03:45:17;;;;;;;14.25;13.45;;;;;;;15.01;97.91;100435.00;10423608;28;20446;-73
2021/09/28 03:50:19;;;;;;;17.73;16.00;;;;;;;15.27;96.82;100438.28;10404619;28;20076;-73
2021/09/28 03:55:20;;;;;;;17.20;15.85;;;;;;;15.17;95.93;100440.47;10422378;28;20137;-74
2021/09/28 04:00:22;;;;;;;16.30;15.23;;;;;;;15.26;95.50;100460.41;10422226;28;20055;-74
2021/09/28 04:05:23;;;;;;;16.48;15.30;;;;;;;15.00;97.23;100462.38;10422793;28;20048;-74
2021/09/28 04:10:25;;;;;;;16.95;15.85;;;;;;;14.94;97.73;100464.44;10404057;28;20071;-73
2021/09/28 04:15:27;;;;;;;16.25;15.15;;;;;;;15.00;96.76;100464.19;10421849;28;20052;-75
2021/09/28 04:20:29;;;;;;;17.65;16.50;;;;;;;14.94;97.63;100470.59;10421472;28;20107;-75
2021/09/28 04:25:31;;;;;;;18.88;17.60;;;;;;;14.82;98.69;100477.25;10403439;28;20053;-73
2021/09/28 04:30:32;;;;;;;18.25;16.45;;;;;;;14.90;96.54;100476.94;10420973;28;20415;-73
2021/09/28 04:35:34;;;;;;;18.35;17.05;;;;;;;14.73;97.58;100492.69;10403915;28;20041;-73
2021/09/28 04:40:36;;;;;;;16.33;15.02;;;;;;;14.93;98.23;100490.06;10420561;28;20049;-73
2021/09/28 04:45:37;;;;;;;17.42;15.65;;;;;;;15.21;95.93;100500.31;10420510;28;20045;-74
2021/09/28 04:50:39;;;;;;;15.35;14.30;;;;;;;15.33;95.10;100498.94;10402573;28;20054;-74
2021/09/28 04:55:41;;;;;;;15.05;14.10;;;;;;;15.11;96.15;100505.16;10419934;28;20049;-74
2021/09/28 05:00:42;;;;;;;15.55;14.55;;;;;;;14.99;97.43;100504.81;10402356;28;20053;-74
2021/09/28 05:05:44;;;;;;;15.98;14.75;;;;;;;15.42;94.63;100513.56;10420003;28;20452;-74
2021/09/28 05:10:47;;;;;;;14.25;13.35;;;;;;;15.15;95.21;100513.84;10401728;28;20099;-74
2021/09/28 05:15:49;;;;;;;14.32;13.43;;;;;;;15.03;96.96;100511.72;10419572;28;20042;-74
2021/09/28 05:20:50;;;;;;;15.00;14.00;;;;;;;15.30;96.12;100520.25;10419309;28;20053;-74
2021/09/28 05:25:52;;;;;;;21.35;19.85;;;;;;;15.43;94.12;100526.72;10420140;28;20116;-74
2021/09/28 05:30:54;;;;;;;22.77;20.85;;;;;;;15.56;94.88;100532.34;10400986;28;20046;-74
2021/09/28 05:35:56;;;;;;;24.33;22.45;;;;;;;15.60;93.65;100526.84;10418574;28;20475;-74
2021/09/28 05:41:03;;;;;;;25.80;24.00;;;;;;;15.37;95.91;100532.31;10401424;28;20041;-73
2021/09/28 05:46:06;;;;;;;24.93;23.33;;;;;;;15.50;95.83;100536.16;10419724;28;20045;-73
2021/09/28 05:51:17;;;;;;;23.60;21.95;;;;;;;15.75;94.67;100541.22;10418502;28;20392;-75
2021/09/28 05:56:18;;;;;;;23.17;21.63;;;;;;;15.96;93.25;100547.34;10400443;28;20045;-74
2021/09/28 06:01:20;;;;;;;26.05;23.73;;;;;;;16.18;92.11;100559.63;10418077;28;20061;-73
2021/09/28 06:06:26;;;;;;;23.42;22.02;;;;;;;15.89;94.08;100565.34;10417023;28;20052;-74
2021/09/28 06:11:28;;;;;;;25.13;23.40;;;;;;;15.86;94.40;100572.56;10399657;28;20059;-74
2021/09/28 06:16:30;;;;;;;21.95;20.40;;;;;;;16.15;92.01;100585.34;10418015;28;20092;-74
2021/09/28 06:21:31;;;;;;;15.38;14.48;;;;;;;15.92;90.84;100587.34;10399453;28;20084;-74
2021/09/28 06:26:33;;;;;;;16.00;14.95;;;;;;;15.56;92.29;100604.75;10416760;28;20133;-74
2021/09/28 06:31:35;;;;;;;11.52;10.75;;;;;;;15.41;92.33;100596.63;10416654;28;20508;-73
2021/09/28 06:36:37;;;;;;;9.68;8.88;;;;;;;15.53;90.69;100602.22;10416331;28;20045;-74
2021/09/28 06:41:39;;;;;;;7.65;7.15;;;;;;;15.47;90.24;100617.53;10399810;28;20042;-74
2021/09/28 06:46:41;;;;;;;8.70;7.88;;;;;;;15.43;89.65;100626.53;10416564;28;20048;-75
2021/09/28 06:51:43;;;;;;;8.80;8.23;;;;;;;15.41;89.39;100623.13;10415915;28;20068;-73
2021/09/28 06:56:44;;;;;;;8.68;8.07;;;;;;;15.42;90.20;100623.03;10417547;28;20037;-73
2021/09/28 07:01:46;;;;;;;7.53;7.03;;;;;;;15.49;89.09;100624.47;10399517;28;20145;-74
2021/09/28 07:06:48;;;;;;;5.38;4.88;;;;;;;15.59;87.81;100633.78;10416619;28;20053;-73
2021/09/28 07:11:50;;;;;;;3.97;3.58;;;;;;;15.42;85.74;100646.03;10416806;28;20041;-74
2021/09/28 07:16:52;;;;;;;3.60;3.20;;;;;;;15.31;87.10;100659.69;10397046;28;20095;-73
2021/09/28 07:21:54;;;;;;;5.97;3.30;;;;;;;15.12;87.20;100670.19;10415466;28;20045;-73
2021/09/28 07:26:56;;;;;;;4.72;3.05;;;;;;;14.87;86.93;100676.47;10398272;28;20045;-73
2021/09/28 07:31:57;;;;;;;3.30;2.92;;;;;;;14.80;86.61;100687.34;10427614;23;20041;-70
2021/09/28 07:37:00;;;;;;;2.75;2.10;;;;;;;14.94;86.14;100694.75;10415706;28;20056;-70
2021/09/28 07:42:02;;;;;;;3.00;2.25;;;;;;;14.97;85.02;100702.59;10415173;28;20037;-70
2021/09/28 07:47:04;;;;;;;3.00;2.55;;;;;;;15.02;83.99;100701.47;10414835;28;20046;-70
2021/09/28 07:52:06;;;;;;;3.55;2.85;;;;;;;14.82;85.92;100715.47;10397366;28;20077;-71
2021/09/28 07:57:08;;;;;;;4.07;3.20;;;;;;;14.92;84.56;100713.34;10415724;28;20045;-70
2021/09/28 08:02:10;;;;;;;4.22;3.00;;;;;;;14.69;86.21;100722.16;10415133;28;20108;-70
2021/09/28 08:07:13;;;;;;;4.00;3.28;;;;;;;15.02;83.08;100727.09;10414083;28;20092;-70
2021/09/28 08:12:15;;;;;;;7.03;3.10;;;;;;;14.93;83.17;100732.75;10414442;28;20045;-70
2021/09/28 08:17:16;;;;;;;4.95;2.92;;;;;;;14.86;83.82;100745.34;10396492;28;20076;-71
2021/09/28 08:22:19;;;;;;;4.88;2.90;;;;;;;14.77;84.60;100754.47;10414572;28;20406;-71
2021/09/28 08:32:43;;;;;;;2.85;2.30;;;;;;;14.82;84.42;100762.25;10381602;28;20054;-71
2021/09/28 08:37:47;;;;;;;5.68;2.70;;;;;;;14.59;86.22;100761.31;10381587;28;20104;-70
2021/09/28 08:42:54;;;;;;;3.50;2.20;;;;;;;14.69;85.07;100769.78;10390798;28;20045;-69
2021/09/28 08:47:56;;;;;;;7.05;2.47;;;;;;;14.56;86.04;100764.06;10444587;28;20104;-70
2021/09/28 08:52:57;;;;;;;4.88;1.67;;;;;;;14.49;86.12;100775.81;10439389;28;20100;-71
2021/09/28 08:58:19;;;;;;;6.03;1.75;;;;;;;14.67;84.69;100778.72;10390754;28;20053;-70
2021/09/28 09:03:29;;;;;;;6.28;1.42;;;;;;;14.54;86.30;100778.28;10378403;28;20046;-70
2021/09/28 09:08:33;;;;;;;3.83;1.58;;;;;;;14.49;87.27;100780.25;10379310;28;20124;-71
2021/09/28 09:13:47;;;;;;;4.13;1.40;;;;;;;14.67;84.74;100781.34;10378779;28;20052;-70
2021/09/28 09:19:08;;;;;;;3.15;1.33;;;;;;;14.56;86.36;100776.44;10378103;28;20048;-71
2021/09/28 09:24:10;;;;;;;5.50;1.90;;;;;;;14.70;85.44;100789.16;10378037;28;20042;-71
2021/09/28 09:29:12;;;;;;;3.85;1.90;;;;;;;14.63;85.72;100784.09;10378025;28;20038;-71
2021/09/28 09:34:19;;;;;;;4.53;1.67;;;;;;;14.61;86.03;100778.03;10377488;28;20049;-71
2021/09/28 09:39:21;;;;;;;4.05;1.60;;;;;;;14.70;87.60;100784.75;10376445;28;20044;-71
2021/09/28 09:44:28;;;;;;;4.47;1.50;;;;;;;15.01;84.60;100795.06;10360601;28;20050;-70
2021/09/28 09:49:33;;;;;;;2.85;1.20;;;;;;;14.72;86.19;100795.28;10376941;28;20479;-71
2021/09/28 09:54:41;;;;;;;2.63;1.55;;;;;;;14.92;85.48;100803.34;10376492;28;20050;-71
2021/09/28 09:59:43;;;;;;;4.35;1.67;;;;;;;14.55;88.99;100809.97;10376797;28;20045;-71
2021/09/28 10:04:47;;;;;;;5.38;1.88;;;;;;;14.74;86.04;100804.91;10376961;28;20037;-71
2021/09/28 10:09:49;;;;;;;4.32;1.70;;;;;;;14.57;88.49;100810.81;10358924;28;20042;-71
2021/09/28 10:15:06;;;;;;;2.72;1.60;;;;;;;14.34;90.90;100814.22;10358232;28;20062;-71
2021/09/28 10:20:25;;;;;;;4.28;1.90;;;;;;;14.54;89.27;100810.91;10358034;28;20046;-70
2021/09/28 10:25:33;;;;;;;4.70;1.73;;;;;;;14.37;92.24;100818.53;10375279;28;20515;-71
2021/09/28 10:30:35;;;;;;;3.20;2.10;;;;;;;14.46;92.22;100807.63;10375603;28;20076;-71
2021/09/28 10:35:53;;;;;;;5.95;1.88;;;;;;;14.77;90.17;100807.41;10358501;28;20107;-71
2021/09/28 10:40:55;;;;;;;4.20;2.05;;;;;;;14.71;91.12;100812.09;10375312;28;20121;-70
2021/09/28 10:46:00;;;;;;;8.23;3.05;;;;;;;14.67;92.04;100807.81;10374418;28;20068;-71
2021/09/28 10:51:05;;;;;;;5.18;2.33;;;;;;;14.70;91.46;100799.75;10374296;28;20068;-71
2021/09/28 10:56:09;;;;;;;4.28;2.08;;;;;;;14.89;90.58;100811.41;10374860;28;20531;-71
2021/09/28 11:01:12;;;;;;;4.45;3.13;;;;;;;14.34;93.40;100808.94;10374454;28;20463;-71
2021/09/28 11:06:15;;;;;;;4.35;2.47;;;;;;;14.43;92.74;100806.88;10374004;28;20499;-70
2021/09/28 11:11:16;;;;;;;5.45;3.22;;;;;;;14.25;93.42;100805.72;10356241;28;20517;-70
2021/09/28 11:16:20;;;;;;;4.07;2.50;;;;;;;14.46;93.29;100796.19;10374210;28;20062;-70
2021/09/28 11:21:22;;;;;;;6.13;3.58;;;;;;;14.59;93.69;100793.06;10374467;28;20464;-71
2021/09/28 11:26:38;;;;;;;4.20;3.03;;;;;;;14.72;93.40;100787.34;10373433;28;20049;-70
2021/09/28 11:31:43;;;;;;;4.65;2.50;;;;;;;15.23;87.68;100773.03;10358387;28;20049;-71
2021/09/28 11:36:48;;;;;;;4.55;2.60;;;;;;;15.24;89.80;100777.44;10356616;28;20074;-71
2021/09/28 11:41:50;;;;;;;4.35;2.25;;;;;;;15.45;87.41;100776.59;10356729;28;20056;-70
2021/09/28 11:46:52;;;;;;;2.85;1.70;;;;;;;15.25;87.54;100779.16;10373368;28;20121;-70
2021/09/28 11:51:56;;;;;;;1.83;1.70;;;;;;;14.99;87.19;100774.84;10373817;28;20042;-70
2021/09/28 11:56:59;;;;;;;2.92;1.38;;;;;;;14.76;88.55;100773.94;10374373;28;20104;-69
2021/09/28 12:02:01;;;;;;;1.60;1.05;;;;;;;14.81;87.71;100779.91;10377331;28;20073;-70
2021/09/28 12:12:10;;;;;;;2.85;0.90;;;;;;;14.92;86.39;100766.28;10363456;28;20077;-70
2021/09/28 12:17:35;;;;;;;1.33;1.10;;;;;;;15.00;87.31;100769.50;10381688;28;20065;-71
2021/09/28 12:22:42;;;;;;;1.52;1.00;;;;;;;15.18;85.19;100762.63;10380576;28;20050;-70
2021/09/28 12:28:00;;;;;;;2.53;1.10;;;;;;;15.30;83.94;100758.63;10370366;28;20044;-69
2021/09/28 12:33:05;;;;;;;1.38;0.90;;;;;;;15.13;84.58;100760.16;10444404;28;20091;-70
2021/09/28 12:38:10;;;;;;;2.72;1.10;;;;;;;15.16;84.51;100763.63;10425764;28;20046;-70
2021/09/28 12:43:17;;;;;;;2.13;1.20;;;;;;;15.27;83.73;100770.22;10423835;28;20045;-71
2021/09/28 12:48:23;;;;;;;2.08;1.23;;;;;;;15.10;83.40;100764.72;10426134;28;20040;-71
2021/09/28 12:53:28;;;;;;;2.20;0.93;;;;;;;15.10;83.58;100756.78;10424723;28;20091;-70
2021/09/28 12:58:31;;;;;;;1.60;0.90;;;;;;;15.00;83.24;100756.25;10419822;28;20045;-69
2021/09/28 13:03:38;;;;;;;1.98;1.00;;;;;;;15.11;83.67;100758.50;10454316;28;20049;-71
2021/09/28 13:08:40;;;;;;;1.77;0.90;;;;;;;15.32;82.87;100749.72;10444601;28;20056;-70
2021/09/28 13:13:42;;;;;;;2.33;0.85;;;;;;;15.60;79.72;100741.50;10459898;28;20053;-70
2021/09/28 13:18:43;;;;;;;2.50;1.40;;;;;;;15.69;79.83;100745.59;10460734;28;20040;-70
2021/09/28 13:23:47;;;;;;;3.13;1.33;;;;;;;15.39;80.81;100747.66;10442999;28;20439;-71
2021/09/28 13:28:50;;;;;;;2.13;1.58;;;;;;;15.45;80.49;100746.53;10426272;28;20041;-70
2021/09/28 13:33:52;;;;;;;2.05;1.23;;;;;;;15.42;81.28;100752.84;10384938;23;20380;-73
2021/09/28 13:38:53;;;;;;;4.10;1.60;;;;;;;15.38;80.24;100748.59;10340681;28;20068;-71
2021/09/28 13:43:56;;;;;;;3.15;1.70;;;;;;;15.02;81.83;100749.13;10341281;28;20043;-72
2021/09/28 13:48:58;;;;;;;3.03;1.55;;;;;;;15.14;80.81;100745.16;10340306;28;20048;-71
2021/09/28 13:53:59;;;;;;;1.55;1.10;;;;;;;15.30;80.55;100740.94;10340148;28;20042;-71
2021/09/28 13:59:01;;;;;;;4.47;1.45;;;;;;;15.38;79.82;100728.25;10331174;28;20404;-71
2021/09/28 14:04:03;;;;;;;2.40;1.63;;;;;;;15.47;78.61;100731.47;10299480;28;20046;-71
2021/09/28 14:09:04;;;;;;;3.40;2.10;;;;;;;15.38;79.82;100720.31;10282320;28;20042;-71
2021/09/28 14:14:06;;;;;;;3.92;1.67;;;;;;;15.57;78.92;100725.72;10299849;28;20464;-71
2021/09/28 14:19:08;;;;;;;3.17;1.63;;;;;;;15.35;78.83;100723.09;10301189;28;20102;-72
2021/09/28 14:24:14;;;;;;;4.45;2.15;;;;;;;15.40;79.38;100720.25;10299439;28;20047;-74
2021/09/28 14:29:16;;;;;;;2.67;1.60;;;;;;;15.49;78.90;100725.16;10301432;28;20039;-74
2021/09/28 14:34:17;;;;;;;4.13;1.88;;;;;;;15.51;79.99;100719.81;10282921;28;20056;-73
2021/09/28 14:39:19;;;;;;;2.83;1.92;;;;;;;15.55;77.60;100721.41;10301227;28;20556;-73
2021/09/28 14:44:21;;;;;;;3.28;1.80;;;;;;;15.67;76.27;100728.00;10299145;28;20126;-73
2021/09/28 14:49:25;;;;;;;3.13;1.85;;;;;;;15.68;77.16;100721.81;10298794;28;20050;-72
2021/09/28 14:54:30;;;;;;;2.67;1.70;;;;;;;15.59;77.48;100717.72;10299865;28;20390;-72
2021/09/28 14:59:32;;;;;;;2.55;1.88;;;;;;;15.52;78.34;100710.94;10282708;28;20047;-74
2021/09/28 15:04:34;;;;;;;4.25;2.13;;;;;;;15.41;76.98;100714.03;10282223;28;20137;-72
2021/09/28 15:09:38;;;;;;;3.58;2.20;;;;;;;15.49;76.55;100706.63;10298179;28;20046;-73
2021/09/28 15:14:41;;;;;;;4.60;2.08;;;;;;;15.38;76.71;100711.50;10279893;28;20059;-72
2021/09/28 15:19:44;;;;;;;4.53;1.90;;;;;;;15.85;73.70;100708.72;10298675;28;20031;-73
2021/09/28 15:24:46;;;;;;;4.22;2.33;;;;;;;15.52;76.71;100708.28;10297611;28;20102;-73
2021/09/28 15:29:48;;;;;;;5.75;2.05;;;;;;;15.36;78.04;100694.81;10280817;28;20043;-73
2021/09/28 15:34:49;;;;;;;4.72;1.77;;;;;;;15.47;75.16;100697.03;10297161;28;20046;-72
2021/09/28 15:39:51;;;;;;;4.22;2.58;;;;;;;15.21;78.80;100696.28;10297460;28;20485;-73
2021/09/28 15:44:53;;;;;;;5.22;3.28;;;;;;;15.02;79.52;100698.81;10295991;28;20043;-73
2021/09/28 15:49:54;;;;;;;3.92;2.30;;;;;;;15.05;79.11;100711.06;10296906;28;20039;-72
2021/09/28 15:54:57;;;;;;;3.35;1.90;;;;;;;14.98;79.87;100715.75;10296544;28;20125;-73
2021/09/28 15:59:58;;;;;;;3.22;2.22;;;;;;;14.91;79.52;100711.59;10278784;28;20051;-72
2021/09/28 16:05:00;;;;;;;2.85;2.08;;;;;;;15.20;79.16;100701.66;10279197;28;20130;-72
2021/09/28 16:10:02;;;;;;;4.68;2.38;;;;;;;15.25;78.68;100694.38;10295862;28;20094;-72
2021/09/28 16:15:04;;;;;;;5.30;2.50;;;;;;;15.12;79.97;100705.47;10296991;28;20512;-72
2021/09/28 16:20:07;;;;;;;5.63;2.42;;;;;;;15.17;78.36;100704.44;10296404;28;20109;-72
2021/09/28 16:25:09;;;;;;;3.75;2.35;;;;;;;14.95;80.92;100707.06;10279405;28;20058;-72
2021/09/28 16:30:11;;;;;;;4.93;2.65;;;;;;;14.85;80.73;100698.63;10296590;28;20050;-72
2021/09/28 16:35:13;;;;;;;4.15;2.40;;;;;;;14.89;80.28;100698.44;10278749;28;20062;-73
2021/09/28 16:40:15;;;;;;;4.93;2.78;;;;;;;14.69;81.44;100692.19;10295801;28;20105;-73
2021/09/28 16:45:17;;;;;;;3.45;2.47;;;;;;;14.64;82.27;100697.66;10296168;28;20085;-72
2021/09/28 16:50:19;;;;;;;6.25;2.20;;;;;;;14.79;81.59;100693.56;10302094;28;20070;-72
2021/09/28 16:55:20;;;;;;;4.88;2.50;;;;;;;14.55;82.65;100693.56;10285400;28;20055;-72
2021/09/28 17:00:22;;;;;;;4.43;2.13;;;;;;;14.45;82.32;100692.16;10302845;28;20047;-73
2021/09/28 17:05:24;;;;;;;4.55;2.65;;;;;;;14.41;82.69;100671.19;10303628;28;20448;-73
2021/09/28 17:10:26;;;;;;;4.47;2.70;;;;;;;14.80;81.13;100667.03;10286234;28;20055;-72
2021/09/28 17:15:28;;;;;;;4.85;2.65;;;;;;;15.02;79.45;100664.41;10283599;28;20074;-72
2021/09/28 17:20:30;;;;;;;3.58;2.70;;;;;;;14.71;82.26;100670.03;10285239;28;20467;-72
2021/09/28 17:25:32;;;;;;;3.83;2.65;;;;;;;14.54;83.65;100669.81;10284673;28;20133;-72
2021/09/28 17:30:35;;;;;;;3.35;2.20;;;;;;;14.57;83.19;100675.00;10283866;28;20106;-71
2021/09/28 17:35:37;;;;;;;3.65;2.10;;;;;;;14.54;83.68;100677.75;10283217;28;20058;-71
2021/09/28 17:40:39;;;;;;;2.38;2.00;;;;;;;14.52;84.61;100677.84;10267305;28;20101;-71
2021/09/28 17:45:40;;;;;;;3.13;2.33;;;;;;;14.60;83.28;100672.22;10299239;28;20070;-71
2021/09/28 17:50:46;;;;;;;3.00;1.70;;;;;;;14.61;82.03;100672.19;10282430;28;20130;-72
2021/09/28 18:00:58;;;;;;;2.45;1.92;;;;;;;14.65;82.17;100667.63;10299679;28;20058;-72
2021/09/28 18:06:00;;;;;;;6.93;3.50;;;;;;;14.69;81.68;100669.22;10283174;28;20061;-72
2021/09/28 18:11:02;;;;;;;4.75;4.25;;;;;;;14.75;81.59;100661.06;10285346;28;20496;-72
2021/09/28 18:16:03;;;;;;;4.25;3.75;;;;;;;14.75;83.31;100660.22;10282282;28;20043;-72
2021/09/28 18:21:05;;;;;;;7.25;3.03;;;;;;;14.57;84.50;100659.13;10300251;28;20062;-72
2021/09/28 18:26:07;;;;;;;3.15;2.72;;;;;;;14.62;84.01;100665.97;10299268;28;20081;-72
2021/09/28 18:31:12;;;;;;;3.53;2.67;;;;;;;14.55;86.24;100660.97;10281107;28;20059;-72
2021/09/28 18:36:20;;;;;;;4.35;3.53;;;;;;;14.55;86.35;100663.59;10305693;28;20042;-73
2021/09/28 18:41:36;;;;;;;4.77;3.47;;;;;;;14.45;86.54;100659.56;10298770;28;20098;-72
2021/09/28 18:46:39;;;;;;;3.58;2.90;;;;;;;14.45;86.45;100652.50;10321634;28;20496;-72
2021/09/28 18:51:43;;;;;;;3.47;2.85;;;;;;;14.48;85.68;100657.72;10339663;28;20046;-72
2021/09/28 18:56:56;;;;;;;4.65;3.60;;;;;;;14.56;84.52;100652.09;10356007;28;20061;-73
2021/09/28 19:02:02;;;;;;;5.40;3.50;;;;;;;14.49;85.07;100654.13;10378168;28;20050;-72
2021/09/28 19:07:19;;;;;;;4.32;3.20;;;;;;;14.50;84.68;100650.56;10379312;28;20037;-72
2021/09/28 19:12:21;;;;;;;5.22;3.28;;;;;;;14.55;84.59;100647.72;10344299;28;20053;-73
2021/09/28 19:17:30;;;;;;;4.05;2.85;;;;;;;14.59;83.97;100644.91;10377729;28;20053;-72
2021/09/28 19:22:33;;;;;;;3.60;2.80;;;;;;;14.51;84.55;100646.97;10378001;28;20057;-72
2021/09/28 19:27:36;;;;;;;4.43;3.28;;;;;;;14.56;84.39;100649.44;10360893;28;20046;-72
2021/09/28 19:32:37;;;;;;;4.88;2.85;;;;;;;14.54;84.96;100648.66;10360042;28;20054;-73
2021/09/28 19:37:43;;;;;;;3.45;2.95;;;;;;;14.41;86.66;100645.59;10358951;28;20499;-73
2021/09/28 19:42:47;;;;;;;4.45;3.10;;;;;;;14.34;87.10;100637.03;10358303;28;20049;-73
2021/09/28 19:47:49;;;;;;;4.03;2.90;;;;;;;14.53;85.04;100634.56;10375326;28;20046;-73
2021/09/28 19:52:51;;;;;;;4.43;2.80;;;;;;;14.61;83.85;100643.09;10376188;28;20084;-73
2021/09/28 19:58:04;;;;;;;5.53;3.17;;;;;;;14.48;85.11;100639.19;10375361;28;20060;-74
2021/09/28 20:03:17;;;;;;;4.43;2.70;;;;;;;14.35;85.32;100636.09;10358556;28;20101;-74
2021/09/28 20:40:27;;;;;;;4.28;2.78;;;;;;;14.60;82.97;100604.28;10365376;28;20133;-73
2021/09/28 20:45:29;;;;;;;4.05;1.98;;;;;;;14.39;86.13;100594.53;10382529;28;20053;-73
2021/09/28 20:50:33;;;;;;;3.33;2.90;;;;;;;14.49;85.08;100595.06;10381668;28;20061;-73
2021/09/28 20:55:35;;;;;;;3.63;2.78;;;;;;;14.51;85.29;100594.06;10363765;28;20132;-72
2021/09/28 21:00:36;;;;;;;6.90;3.97;;;;;;;14.27;85.87;100585.28;10382074;28;20104;-73
2021/09/28 21:05:38;;;;;;;3.45;2.83;;;;;;;14.29;86.27;100582.56;10381134;28;20117;-74
2021/09/28 21:10:40;;;;;;;4.03;3.53;;;;;;;14.27;86.88;100589.72;10380964;28;20125;-73
2021/09/28 21:15:42;;;;;;;4.35;3.53;;;;;;;14.31;86.55;100584.25;10362857;28;20423;-73
2021/09/28 21:20:45;;;;;;;3.58;2.67;;;;;;;14.28;87.15;100575.56;10381997;28;20045;-73
2021/09/28 21:25:46;;;;;;;4.00;3.00;;;;;;;14.34;86.05;100570.03;10380773;28;20092;-74
2021/09/28 21:30:48;;;;;;;5.43;3.85;;;;;;;14.29;86.44;100578.16;10380160;28;20041;-73
2021/09/28 21:36:00;;;;;;;3.83;3.40;;;;;;;14.30;87.12;100576.38;10361576;28;20080;-73
2021/09/28 21:41:03;;;;;;;4.47;3.97;;;;;;;14.42;86.35;100557.38;10381101;28;20046;-73
2021/09/28 21:46:06;;;;;;;3.75;2.97;;;;;;;14.34;87.65;100559.44;10379864;28;20046;-72
2021/09/28 21:51:07;;;;;;;6.38;3.75;;;;;;;14.39;87.79;100557.53;10379765;28;20416;-74
2021/09/28 21:56:09;;;;;;;3.70;3.25;;;;;;;14.31;88.23;100547.22;10362444;28;20042;-73
2021/09/28 22:01:11;;;;;;;3.83;3.45;;;;;;;14.34;87.85;100549.75;10362400;28;20042;-74
2021/09/28 22:06:13;;;;;;;4.43;3.63;;;;;;;14.33;88.63;100548.00;10379187;28;20450;-73
2021/09/28 22:11:15;;;;;;;4.35;3.95;;;;;;;14.29;89.18;100543.75;10361510;28;20050;-74
2021/09/28 22:16:17;;;;;;;4.90;4.25;;;;;;;14.26;88.74;100535.13;10380145;28;20117;-73
2021/09/28 22:21:18;;;;;;;5.88;5.05;;;;;;;14.41;87.57;100545.06;10361391;28;20038;-73
2021/09/28 22:26:20;;;;;;;4.78;4.38;;;;;;;14.59;85.83;100535.56;10379935;28;20058;-73
2021/09/28 22:31:24;;;;;;;7.47;5.28;;;;;;;14.84;83.83;100533.66;10362072;28;20046;-73
2021/09/28 22:36:26;;;;;;;5.93;4.63;;;;;;;14.68;84.99;100535.19;10362192;28;20073;-72
2021/09/28 22:41:27;;;;;;;4.43;4.03;;;;;;;14.49;86.83;100527.16;10379356;28;20084;-73
2021/09/28 22:46:32;;;;;;;7.30;5.80;;;;;;;14.44;87.65;100515.88;10360095;28;20069;-73
2021/09/28 22:51:34;;;;;;;5.13;4.63;;;;;;;14.53;87.28;100520.81;10344511;28;20068;-73
2021/09/28 22:56:36;;;;;;;7.80;5.65;;;;;;;14.58;87.40;100515.34;10360593;28;20080;-72
2021/09/28 23:01:37;;;;;;;8.25;5.25;;;;;;;14.51;87.13;100514.72;10378287;28;20156;-72
2021/09/28 23:06:39;;;;;;;8.30;5.47;;;;;;;14.63;86.35;100503.66;10360788;28;20087;-73
2021/09/28 23:11:42;;;;;;;7.55;5.82;;;;;;;14.61;86.28;100502.00;10376927;28;20042;-72
2021/09/28 23:16:44;;;;;;;5.78;5.35;;;;;;;14.42;88.96;100496.53;10376148;28;20411;-74
2021/09/28 23:21:45;;;;;;;7.38;6.65;;;;;;;14.38;88.96;100487.84;10358898;28;20046;-74
2021/09/28 23:26:47;;;;;;;7.03;6.43;;;;;;;14.28;89.61;100483.88;10342352;28;20054;-73
2021/09/28 23:31:49;;;;;;;7.57;6.78;;;;;;;14.30;90.55;100482.03;10375901;28;20049;-73
2021/09/28 23:36:51;;;;;;;7.20;6.60;;;;;;;14.39;89.68;100475.53;10359048;28;20049;-73
2021/09/28 23:41:53;;;;;;;7.43;6.38;;;;;;;14.45;89.53;100477.06;10358239;28;20500;-74
2021/09/28 23:46:55;;;;;;;8.50;7.70;;;;;;;14.56;88.58;100483.63;10359045;28;20049;-72
2021/09/28 23:51:56;;;;;;;10.35;8.50;;;;;;;14.34;90.44;100477.47;10377309;28;20046;-73